sensor_id;sensor_type;location;lat;lon;timestamp;P1;durP1;ratioP1;P2;durP2;ratioP2
38557;SDS011;24333;42.626;23.308;2023-06-22T00:01:03;7.47;;;3.75;;
38557;SDS011;24333;42.626;23.308;2023-06-22T00:03:29;5.85;;;3.90;;
38557;SDS011;24333;42.626;23.308;2023-06-22T00:05:54;11.10;;;4.05;;
38557;SDS011;24333;42.626;23.308;2023-06-22T00:08:19;8.23;;;4.07;;
38557;SDS011;24333;42.626;23.308;2023-06-22T00:10:45;10.95;;;4.20;;
38557;SDS011;24333;42.626;23.308;2023-06-22T00:13:25;7.10;;;4.15;;
38557;SDS011;24333;42.626;23.308;2023-06-22T00:15:54;8.40;;;3.70;;
38557;SDS011;24333;42.626;23.308;2023-06-22T00:18:19;5.25;;;3.08;;
38557;SDS011;24333;42.626;23.308;2023-06-22T00:20:45;6.82;;;4.10;;
38557;SDS011;24333;42.626;23.308;2023-06-22T00:23:10;7.15;;;4.20;;
38557;SDS011;24333;42.626;23.308;2023-06-22T00:25:36;6.95;;;3.90;;
38557;SDS011;24333;42.626;23.308;2023-06-22T00:28:05;8.52;;;3.75;;
38557;SDS011;24333;42.626;23.308;2023-06-22T00:30:31;6.10;;;4.07;;
38557;SDS011;24333;42.626;23.308;2023-06-22T00:32:57;5.68;;;3.45;;
38557;SDS011;24333;42.626;23.308;2023-06-22T00:35:23;8.45;;;4.22;;
38557;SDS011;24333;42.626;23.308;2023-06-22T00:37:53;5.60;;;3.70;;
38557;SDS011;24333;42.626;23.308;2023-06-22T00:40:25;6.20;;;4.07;;
38557;SDS011;24333;42.626;23.308;2023-06-22T00:42:51;6.90;;;3.85;;
38557;SDS011;24333;42.626;23.308;2023-06-22T01:17:32;8.55;;;4.10;;
38557;SDS011;24333;42.626;23.308;2023-06-22T01:20:02;8.73;;;4.53;;
38557;SDS011;24333;42.626;23.308;2023-06-22T01:22:33;7.53;;;4.05;;
38557;SDS011;24333;42.626;23.308;2023-06-22T01:25:28;6.55;;;4.18;;
38557;SDS011;24333;42.626;23.308;2023-06-22T01:30:57;8.25;;;4.63;;
38557;SDS011;24333;42.626;23.308;2023-06-22T01:33:35;7.30;;;4.50;;
38557;SDS011;24333;42.626;23.308;2023-06-22T01:36:04;9.27;;;4.43;;
38557;SDS011;24333;42.626;23.308;2023-06-22T01:38:32;8.52;;;4.75;;
38557;SDS011;24333;42.626;23.308;2023-06-22T01:41:00;6.80;;;4.15;;
38557;SDS011;24333;42.626;23.308;2023-06-22T01:43:27;6.68;;;4.10;;
38557;SDS011;24333;42.626;23.308;2023-06-22T01:45:54;9.75;;;4.97;;
38557;SDS011;24333;42.626;23.308;2023-06-22T01:48:22;9.32;;;4.80;;
38557;SDS011;24333;42.626;23.308;2023-06-22T01:50:51;8.60;;;5.03;;
38557;SDS011;24333;42.626;23.308;2023-06-22T01:53:22;9.23;;;4.63;;
38557;SDS011;24333;42.626;23.308;2023-06-22T01:55:53;7.35;;;4.30;;
38557;SDS011;24333;42.626;23.308;2023-06-22T01:58:22;13.15;;;5.00;;
38557;SDS011;24333;42.626;23.308;2023-06-22T02:01:15;10.48;;;4.40;;
38557;SDS011;24333;42.626;23.308;2023-06-22T02:03:53;8.90;;;4.88;;
38557;SDS011;24333;42.626;23.308;2023-06-22T02:06:30;9.30;;;4.82;;
38557;SDS011;24333;42.626;23.308;2023-06-22T02:09:06;8.68;;;5.07;;
38557;SDS011;24333;42.626;23.308;2023-06-22T02:11:37;8.98;;;5.13;;
38557;SDS011;24333;42.626;23.308;2023-06-22T02:14:06;8.88;;;4.97;;
38557;SDS011;24333;42.626;23.308;2023-06-22T02:16:33;8.73;;;4.97;;
38557;SDS011;24333;42.626;23.308;2023-06-22T02:18:59;8.65;;;4.93;;
38557;SDS011;24333;42.626;23.308;2023-06-22T02:21:28;9.45;;;4.93;;
38557;SDS011;24333;42.626;23.308;2023-06-22T02:23:53;9.50;;;5.25;;
38557;SDS011;24333;42.626;23.308;2023-06-22T02:26:19;8.70;;;5.25;;
38557;SDS011;24333;42.626;23.308;2023-06-22T02:28:45;12.30;;;5.57;;
38557;SDS011;24333;42.626;23.308;2023-06-22T02:31:11;10.48;;;5.03;;
38557;SDS011;24333;42.626;23.308;2023-06-22T02:33:37;12.95;;;5.85;;
38557;SDS011;24333;42.626;23.308;2023-06-22T02:36:02;10.13;;;5.18;;
38557;SDS011;24333;42.626;23.308;2023-06-22T02:38:30;11.05;;;5.47;;
38557;SDS011;24333;42.626;23.308;2023-06-22T02:41:00;12.55;;;5.95;;
38557;SDS011;24333;42.626;23.308;2023-06-22T02:43:26;10.57;;;5.35;;
38557;SDS011;24333;42.626;23.308;2023-06-22T02:45:55;9.68;;;5.35;;
38557;SDS011;24333;42.626;23.308;2023-06-22T02:48:22;11.15;;;5.70;;
38557;SDS011;24333;42.626;23.308;2023-06-22T02:50:49;9.60;;;5.68;;
38557;SDS011;24333;42.626;23.308;2023-06-22T02:53:14;11.02;;;5.75;;
38557;SDS011;24333;42.626;23.308;2023-06-22T02:55:41;10.20;;;5.60;;
38557;SDS011;24333;42.626;23.308;2023-06-22T02:58:07;11.80;;;6.05;;
38557;SDS011;24333;42.626;23.308;2023-06-22T03:00:34;11.70;;;5.95;;
38557;SDS011;24333;42.626;23.308;2023-06-22T03:03:00;14.80;;;5.90;;
38557;SDS011;24333;42.626;23.308;2023-06-22T03:05:25;12.52;;;6.00;;
38557;SDS011;24333;42.626;23.308;2023-06-22T03:07:51;11.10;;;5.50;;
38557;SDS011;24333;42.626;23.308;2023-06-22T03:10:17;13.32;;;6.07;;
38557;SDS011;24333;42.626;23.308;2023-06-22T03:12:43;8.93;;;5.30;;
38557;SDS011;24333;42.626;23.308;2023-06-22T03:15:09;9.07;;;5.60;;
38557;SDS011;24333;42.626;23.308;2023-06-22T10:25:53;8.60;;;5.85;;
38557;SDS011;24333;42.626;23.308;2023-06-22T10:28:18;11.38;;;5.80;;
38557;SDS011;24333;42.626;23.308;2023-06-22T10:30:44;7.28;;;5.25;;
38557;SDS011;24333;42.626;23.308;2023-06-22T10:33:09;9.45;;;5.75;;
38557;SDS011;24333;42.626;23.308;2023-06-22T10:35:36;10.02;;;6.15;;
38557;SDS011;24333;42.626;23.308;2023-06-22T10:38:05;9.98;;;6.07;;
38557;SDS011;24333;42.626;23.308;2023-06-22T10:40:31;7.13;;;5.07;;
38557;SDS011;24333;42.626;23.308;2023-06-22T10:42:57;6.60;;;4.57;;
38557;SDS011;24333;42.626;23.308;2023-06-22T10:45:22;10.43;;;5.78;;
38557;SDS011;24333;42.626;23.308;2023-06-22T10:47:48;11.38;;;6.05;;
38557;SDS011;24333;42.626;23.308;2023-06-22T10:50:13;21.73;;;6.38;;
38557;SDS011;24333;42.626;23.308;2023-06-22T10:52:39;7.93;;;5.10;;
38557;SDS011;24333;42.626;23.308;2023-06-22T10:55:10;21.80;;;5.50;;
38557;SDS011;24333;42.626;23.308;2023-06-22T10:57:36;7.28;;;5.32;;
38557;SDS011;24333;42.626;23.308;2023-06-22T11:00:04;8.95;;;5.70;;
38557;SDS011;24333;42.626;23.308;2023-06-22T11:02:31;8.18;;;5.72;;
38557;SDS011;24333;42.626;23.308;2023-06-22T11:04:57;10.50;;;5.28;;
38557;SDS011;24333;42.626;23.308;2023-06-22T11:07:25;7.93;;;5.90;;
38557;SDS011;24333;42.626;23.308;2023-06-22T11:09:52;7.88;;;5.32;;
38557;SDS011;24333;42.626;23.308;2023-06-22T11:12:17;9.35;;;5.63;;
38557;SDS011;24333;42.626;23.308;2023-06-22T11:14:42;8.30;;;5.95;;
38557;SDS011;24333;42.626;23.308;2023-06-22T11:17:08;8.95;;;6.20;;
38557;SDS011;24333;42.626;23.308;2023-06-22T11:19:33;10.48;;;6.53;;
38557;SDS011;24333;42.626;23.308;2023-06-22T11:21:59;9.57;;;5.85;;
38557;SDS011;24333;42.626;23.308;2023-06-22T11:24:24;13.65;;;5.57;;
38557;SDS011;24333;42.626;23.308;2023-06-22T11:26:49;10.82;;;5.97;;
38557;SDS011;24333;42.626;23.308;2023-06-22T11:29:15;8.02;;;5.65;;
38557;SDS011;24333;42.626;23.308;2023-06-22T11:31:40;7.85;;;5.68;;
38557;SDS011;24333;42.626;23.308;2023-06-22T11:34:07;10.43;;;5.85;;
38557;SDS011;24333;42.626;23.308;2023-06-22T11:36:33;8.40;;;5.60;;
38557;SDS011;24333;42.626;23.308;2023-06-22T11:39:00;7.15;;;5.40;;
38557;SDS011;24333;42.626;23.308;2023-06-22T11:41:26;13.52;;;6.07;;
38557;SDS011;24333;42.626;23.308;2023-06-22T11:43:51;9.52;;;6.07;;
38557;SDS011;24333;42.626;23.308;2023-06-22T11:46:16;10.45;;;5.82;;
38557;SDS011;24333;42.626;23.308;2023-06-22T11:48:42;10.82;;;6.22;;
38557;SDS011;24333;42.626;23.308;2023-06-22T11:51:07;10.30;;;6.85;;
38557;SDS011;24333;42.626;23.308;2023-06-22T11:53:34;14.48;;;6.82;;
38557;SDS011;24333;42.626;23.308;2023-06-22T11:56:03;7.63;;;5.72;;
38557;SDS011;24333;42.626;23.308;2023-06-22T11:58:28;11.95;;;6.18;;
38557;SDS011;24333;42.626;23.308;2023-06-22T12:00:54;10.35;;;6.47;;
38557;SDS011;24333;42.626;23.308;2023-06-22T12:03:24;10.07;;;6.60;;
38557;SDS011;24333;42.626;23.308;2023-06-22T12:06:03;10.27;;;6.22;;
38557;SDS011;24333;42.626;23.308;2023-06-22T12:08:29;13.98;;;6.30;;
38557;SDS011;24333;42.626;23.308;2023-06-22T12:10:54;7.32;;;5.03;;
38557;SDS011;24333;42.626;23.308;2023-06-22T12:13:20;7.93;;;5.88;;
38557;SDS011;24333;42.626;23.308;2023-06-22T12:15:46;12.00;;;5.78;;
38557;SDS011;24333;42.626;23.308;2023-06-22T12:18:11;14.48;;;6.40;;
38557;SDS011;24333;42.626;23.308;2023-06-22T12:20:39;9.80;;;6.10;;
38557;SDS011;24333;42.626;23.308;2023-06-22T12:23:04;14.00;;;6.15;;
38557;SDS011;24333;42.626;23.308;2023-06-22T20:02:35;7.65;;;4.10;;
38557;SDS011;24333;42.626;23.308;2023-06-22T20:05:07;13.27;;;4.20;;
38557;SDS011;24333;42.626;23.308;2023-06-22T20:07:35;8.02;;;4.28;;
38557;SDS011;24333;42.626;23.308;2023-06-22T20:10:06;8.98;;;4.45;;
38557;SDS011;24333;42.626;23.308;2023-06-22T20:12:39;6.63;;;4.50;;
38557;SDS011;24333;42.626;23.308;2023-06-22T20:15:14;6.93;;;4.13;;
38557;SDS011;24333;42.626;23.308;2023-06-22T23:32:42;7.63;;;3.70;;
